Flintercape — PBOQ — position and weather

sailwx.info

Track history (hours):
 
Tides and Currents Weather Stations Pressure Air Temp Water Temp Dewpoint Dewpoint Depression Visibility Wind Speed Wind Dir Waves Ship Positions

Flintercape

Last reported at 2018-Feb-15 05:34 UTC. Time now 2018-Feb-23 06:05 UTC.
Position S 17°32' E 117°52'.
Warning: this ship's position is 8 days out of date.

Length 139 m; draft 6.5 m.

Type: Cargo ship. MMSI: 244010871.

Date/timePositionNaut miles runAvg speedWind from/ knotsBaromVisibWave heightAir tempDewpointWater temp
2018-Feb-15 05:34S 17°32' E 117°52'8514.7
2018-Feb-14 23:45S 18°55' E 118°12'714.0
2018-Feb-14 23:15S 19°02' E 118°14'613.8
2018-Feb-14 22:50S 19°07' E 118°16'513.8
2018-Feb-14 22:29S 19°12' E 118°17'814.1
2018-Feb-14 21:56S 19°20' E 118°18'614.2
2018-Feb-14 21:30S 19°26' E 118°20'714.6
2018-Feb-14 21:00S 19°33' E 118°22'1314.8
2018-Feb-14 20:07S 19°45' E 118°25'212.7
2018-Feb-14 19:58S 19°47' E 118°25'1915.3
2018-Feb-14 18:42S 20°05' E 118°33'315.0
2018-Feb-14 18:30S 20°08' E 118°33'  
2018-Feb-11 10:27S 20°05' E 118°32'0 0.0
2018-Feb-11 07:27S 20°05' E 118°32'0 0.0
2018-Feb-11 06:33S 20°05' E 118°32'0 0.0
2018-Feb-11 05:45S 20°05' E 118°32'0 0.0
2018-Feb-10 15:12S 20°04' E 118°32'0 0.0
2018-Feb-10 15:00S 20°04' E 118°32'8 7.0
2018-Feb-10 13:54S 19°57' E 118°29'614.5
2018-Feb-10 13:30S 19°52' E 118°31'815.1
2018-Feb-10 13:00S 19°45' E 118°34'815.2
2018-Feb-10 12:29S 19°38' E 118°38'4415.2
2018-Feb-10 09:34S 18°57' E 118°57'  
Track history (hours):
 
Tides and Currents Weather Stations Pressure Air Temp Water Temp Dewpoint Dewpoint Depression Visibility Wind Speed Wind Dir Waves Ship Positions

Flintercape

Last reported at 2018-Feb-15 05:34 UTC. Time now 2018-Feb-23 06:05 UTC.
Position S 17°32' E 117°52'.
Warning: this ship's position is 8 days out of date.

Length 139 m; draft 6.5 m.

Type: Cargo ship. MMSI: 244010871.

Date/timePositionNaut miles runAvg speedWind from/ knotsBaromVisibWave heightAir tempDewpointWater temp
2018-Feb-15 05:34S 17°32' E 117°52'8514.7
2018-Feb-14 23:45S 18°55' E 118°12'714.0
2018-Feb-14 23:15S 19°02' E 118°14'613.8
2018-Feb-14 22:50S 19°07' E 118°16'513.8
2018-Feb-14 22:29S 19°12' E 118°17'814.1
2018-Feb-14 21:56S 19°20' E 118°18'614.2
2018-Feb-14 21:30S 19°26' E 118°20'714.6
2018-Feb-14 21:00S 19°33' E 118°22'1314.8
2018-Feb-14 20:07S 19°45' E 118°25'212.7
2018-Feb-14 19:58S 19°47' E 118°25'1915.3
2018-Feb-14 18:42S 20°05' E 118°33'315.0
2018-Feb-14 18:30S 20°08' E 118°33'  
2018-Feb-11 10:27S 20°05' E 118°32'0 0.0
2018-Feb-11 07:27S 20°05' E 118°32'0 0.0
2018-Feb-11 06:33S 20°05' E 118°32'0 0.0
2018-Feb-11 05:45S 20°05' E 118°32'0 0.0
2018-Feb-10 15:12S 20°04' E 118°32'0 0.0
2018-Feb-10 15:00S 20°04' E 118°32'8 7.0
2018-Feb-10 13:54S 19°57' E 118°29'614.5
2018-Feb-10 13:30S 19°52' E 118°31'815.1
2018-Feb-10 13:00S 19°45' E 118°34'815.2
2018-Feb-10 12:29S 19°38' E 118°38'4415.2
2018-Feb-10 09:34S 18°57' E 118°57'  

Dump ship's entire track history